sensor_id;sensor_type;location;lat;lon;timestamp;temperature;humidity
13052;DHT22;6592;47.484;9.726;2023-04-30T00:01:25;14.40;99.90
13052;DHT22;6592;47.484;9.726;2023-04-30T00:03:53;14.50;99.90
13052;DHT22;6592;47.484;9.726;2023-04-30T00:06:23;14.50;99.90
13052;DHT22;6592;47.484;9.726;2023-04-30T00:08:54;14.50;99.90
13052;DHT22;6592;47.484;9.726;2023-04-30T00:11:22;14.40;99.90
13052;DHT22;6592;47.484;9.726;2023-04-30T00:13:51;14.40;99.90
13052;DHT22;6592;47.484;9.726;2023-04-30T00:16:19;14.40;99.90
13052;DHT22;6592;47.484;9.726;2023-04-30T00:18:48;14.40;99.90
13052;DHT22;6592;47.484;9.726;2023-04-30T00:21:16;14.40;99.90
13052;DHT22;6592;47.484;9.726;2023-04-30T00:23:46;14.40;99.90
13052;DHT22;6592;47.484;9.726;2023-04-30T00:26:14;14.40;99.90
13052;DHT22;6592;47.484;9.726;2023-04-30T00:28:42;14.30;99.90
13052;DHT22;6592;47.484;9.726;2023-04-30T00:31:10;14.30;99.90
13052;DHT22;6592;47.484;9.726;2023-04-30T00:33:39;14.30;99.90
13052;DHT22;6592;47.484;9.726;2023-04-30T00:36:07;14.30;99.90
13052;DHT22;6592;47.484;9.726;2023-04-30T00:38:35;14.30;99.90
13052;DHT22;6592;47.484;9.726;2023-04-30T00:41:05;14.30;99.90
13052;DHT22;6592;47.484;9.726;2023-04-30T00:43:34;14.30;99.90
13052;DHT22;6592;47.484;9.726;2023-04-30T00:46:02;14.30;99.90
13052;DHT22;6592;47.484;9.726;2023-04-30T00:48:32;14.30;99.90
13052;DHT22;6592;47.484;9.726;2023-04-30T00:51:02;14.20;99.90
13052;DHT22;6592;47.484;9.726;2023-04-30T00:53:31;14.20;99.90
13052;DHT22;6592;47.484;9.726;2023-04-30T00:55:59;14.20;99.90
13052;DHT22;6592;47.484;9.726;2023-04-30T00:58:29;14.10;99.90
13052;DHT22;6592;47.484;9.726;2023-04-30T01:00:57;14.10;99.90
13052;DHT22;6592;47.484;9.726;2023-04-30T01:03:27;14.10;99.90
13052;DHT22;6592;47.484;9.726;2023-04-30T01:05:56;14.10;99.90
13052;DHT22;6592;47.484;9.726;2023-04-30T01:08:24;14.10;99.90
13052;DHT22;6592;47.484;9.726;2023-04-30T01:11:04;14.00;99.90
13052;DHT22;6592;47.484;9.726;2023-04-30T01:13:42;14.00;99.90
13052;DHT22;6592;47.484;9.726;2023-04-30T01:16:17;13.90;99.90
13052;DHT22;6592;47.484;9.726;2023-04-30T01:18:50;13.90;99.90
13052;DHT22;6592;47.484;9.726;2023-04-30T01:21:19;13.90;99.90
13052;DHT22;6592;47.484;9.726;2023-04-30T01:24:00;13.90;99.90
13052;DHT22;6592;47.484;9.726;2023-04-30T01:26:47;13.90;99.90
13052;DHT22;6592;47.484;9.726;2023-04-30T01:29:18;13.90;99.90
13052;DHT22;6592;47.484;9.726;2023-04-30T01:31:47;13.90;99.90
13052;DHT22;6592;47.484;9.726;2023-04-30T01:34:15;13.80;99.90
13052;DHT22;6592;47.484;9.726;2023-04-30T01:36:56;13.80;99.90
13052;DHT22;6592;47.484;9.726;2023-04-30T01:39:37;13.80;99.90
13052;DHT22;6592;47.484;9.726;2023-04-30T01:42:11;13.80;99.90
13052;DHT22;6592;47.484;9.726;2023-04-30T01:44:52;13.80;99.90
13052;DHT22;6592;47.484;9.726;2023-04-30T01:47:29;13.70;99.90
13052;DHT22;6592;47.484;9.726;2023-04-30T01:50:09;13.70;99.90
13052;DHT22;6592;47.484;9.726;2023-04-30T01:52:45;13.70;99.90
13052;DHT22;6592;47.484;9.726;2023-04-30T01:55:17;13.70;99.90
13052;DHT22;6592;47.484;9.726;2023-04-30T01:57:54;13.70;99.90
13052;DHT22;6592;47.484;9.726;2023-04-30T02:00:25;13.70;99.90
13052;DHT22;6592;47.484;9.726;2023-04-30T02:02:53;13.70;99.90
13052;DHT22;6592;47.484;9.726;2023-04-30T02:05:21;13.70;99.90
13052;DHT22;6592;47.484;9.726;2023-04-30T02:07:51;13.70;99.90
13052;DHT22;6592;47.484;9.726;2023-04-30T02:10:21;13.70;99.90
13052;DHT22;6592;47.484;9.726;2023-04-30T02:12:50;13.70;99.90
13052;DHT22;6592;47.484;9.726;2023-04-30T02:15:18;13.60;99.90
13052;DHT22;6592;47.484;9.726;2023-04-30T02:17:48;13.50;99.90
13052;DHT22;6592;47.484;9.726;2023-04-30T02:20:16;13.50;99.90
13052;DHT22;6592;47.484;9.726;2023-04-30T02:22:44;13.50;99.90
13052;DHT22;6592;47.484;9.726;2023-04-30T02:25:13;13.40;99.90
13052;DHT22;6592;47.484;9.726;2023-04-30T02:27:41;13.40;99.90
13052;DHT22;6592;47.484;9.726;2023-04-30T02:30:09;13.40;99.90
13052;DHT22;6592;47.484;9.726;2023-04-30T02:32:37;13.40;99.90
13052;DHT22;6592;47.484;9.726;2023-04-30T02:35:08;13.30;99.90
13052;DHT22;6592;47.484;9.726;2023-04-30T02:37:36;13.30;99.90
13052;DHT22;6592;47.484;9.726;2023-04-30T02:40:06;13.40;99.90
13052;DHT22;6592;47.484;9.726;2023-04-30T02:42:34;13.40;99.90
13052;DHT22;6592;47.484;9.726;2023-04-30T02:45:03;13.40;99.90
13052;DHT22;6592;47.484;9.726;2023-04-30T02:47:31;13.40;99.90
13052;DHT22;6592;47.484;9.726;2023-04-30T02:49:59;13.40;99.90
13052;DHT22;6592;47.484;9.726;2023-04-30T02:52:29;13.40;99.90
13052;DHT22;6592;47.484;9.726;2023-04-30T02:54:57;13.40;99.90
13052;DHT22;6592;47.484;9.726;2023-04-30T02:57:25;13.40;99.90
13052;DHT22;6592;47.484;9.726;2023-04-30T02:59:53;13.40;99.90
13052;DHT22;6592;47.484;9.726;2023-04-30T03:02:22;13.40;99.90
13052;DHT22;6592;47.484;9.726;2023-04-30T03:04:50;13.30;99.90
13052;DHT22;6592;47.484;9.726;2023-04-30T03:07:18;13.30;99.90
13052;DHT22;6592;47.484;9.726;2023-04-30T03:09:48;13.20;99.90
13052;DHT22;6592;47.484;9.726;2023-04-30T03:12:17;13.20;99.90
13052;DHT22;6592;47.484;9.726;2023-04-30T03:14:45;13.20;99.90
13052;DHT22;6592;47.484;9.726;2023-04-30T03:17:13;13.10;99.90
13052;DHT22;6592;47.484;9.726;2023-04-30T03:19:42;13.10;99.90
13052;DHT22;6592;47.484;9.726;2023-04-30T03:22:10;13.10;99.90
13052;DHT22;6592;47.484;9.726;2023-04-30T03:24:38;13.10;99.90
13052;DHT22;6592;47.484;9.726;2023-04-30T03:27:08;13.10;99.90
13052;DHT22;6592;47.484;9.726;2023-04-30T03:29:36;13.10;99.90
13052;DHT22;6592;47.484;9.726;2023-04-30T03:32:05;13.10;99.90
13052;DHT22;6592;47.484;9.726;2023-04-30T03:34:33;13.10;99.90
13052;DHT22;6592;47.484;9.726;2023-04-30T03:37:01;12.80;99.90
13052;DHT22;6592;47.484;9.726;2023-04-30T03:39:29;13.00;99.90
13052;DHT22;6592;47.484;9.726;2023-04-30T03:41:58;13.00;99.90
13052;DHT22;6592;47.484;9.726;2023-04-30T03:44:27;13.00;99.90
13052;DHT22;6592;47.484;9.726;2023-04-30T03:46:55;13.10;99.90
13052;DHT22;6592;47.484;9.726;2023-04-30T03:49:24;13.00;99.90
13052;DHT22;6592;47.484;9.726;2023-04-30T03:51:52;13.00;99.90
13052;DHT22;6592;47.484;9.726;2023-04-30T03:54:20;13.00;99.90
13052;DHT22;6592;47.484;9.726;2023-04-30T03:56:48;13.00;99.90
13052;DHT22;6592;47.484;9.726;2023-04-30T03:59:17;12.90;99.90
13052;DHT22;6592;47.484;9.726;2023-04-30T04:01:47;12.90;99.90
13052;DHT22;6592;47.484;9.726;2023-04-30T04:04:15;12.90;99.90
13052;DHT22;6592;47.484;9.726;2023-04-30T04:06:43;12.90;99.90
13052;DHT22;6592;47.484;9.726;2023-04-30T04:09:12;12.90;99.90
13052;DHT22;6592;47.484;9.726;2023-04-30T04:11:40;13.00;99.90
13052;DHT22;6592;47.484;9.726;2023-04-30T04:14:08;13.00;99.90
13052;DHT22;6592;47.484;9.726;2023-04-30T04:16:37;13.00;99.90
13052;DHT22;6592;47.484;9.726;2023-04-30T04:19:06;13.00;99.90
13052;DHT22;6592;47.484;9.726;2023-04-30T04:21:35;13.00;99.90
13052;DHT22;6592;47.484;9.726;2023-04-30T04:24:04;13.00;99.90
13052;DHT22;6592;47.484;9.726;2023-04-30T04:26:34;13.00;99.90
13052;DHT22;6592;47.484;9.726;2023-04-30T04:29:03;13.10;99.90
13052;DHT22;6592;47.484;9.726;2023-04-30T04:31:31;13.00;99.90
13052;DHT22;6592;47.484;9.726;2023-04-30T04:34:01;13.10;99.90
13052;DHT22;6592;47.484;9.726;2023-04-30T04:36:31;13.00;99.90
13052;DHT22;6592;47.484;9.726;2023-04-30T04:39:00;13.10;99.90
13052;DHT22;6592;47.484;9.726;2023-04-30T04:41:28;13.10;99.90
13052;DHT22;6592;47.484;9.726;2023-04-30T04:43:58;13.20;99.90
13052;DHT22;6592;47.484;9.726;2023-04-30T04:46:27;13.20;99.90
13052;DHT22;6592;47.484;9.726;2023-04-30T04:48:56;13.20;99.90
13052;DHT22;6592;47.484;9.726;2023-04-30T04:51:24;13.20;99.90
13052;DHT22;6592;47.484;9.726;2023-04-30T04:53:54;13.30;99.90
13052;DHT22;6592;47.484;9.726;2023-04-30T04:56:22;13.40;99.90
13052;DHT22;6592;47.484;9.726;2023-04-30T04:58:50;13.40;99.90
13052;DHT22;6592;47.484;9.726;2023-04-30T05:01:19;13.50;99.90
13052;DHT22;6592;47.484;9.726;2023-04-30T05:03:47;13.50;99.90
13052;DHT22;6592;47.484;9.726;2023-04-30T05:06:16;13.70;99.90
13052;DHT22;6592;47.484;9.726;2023-04-30T05:08:44;13.80;99.90
13052;DHT22;6592;47.484;9.726;2023-04-30T05:11:14;13.90;99.90
13052;DHT22;6592;47.484;9.726;2023-04-30T05:13:42;14.10;99.90
13052;DHT22;6592;47.484;9.726;2023-04-30T05:16:10;14.20;99.90
13052;DHT22;6592;47.484;9.726;2023-04-30T05:18:38;14.20;99.90
13052;DHT22;6592;47.484;9.726;2023-04-30T05:21:07;14.30;99.90
13052;DHT22;6592;47.484;9.726;2023-04-30T05:23:35;14.40;99.90
13052;DHT22;6592;47.484;9.726;2023-04-30T05:26:03;14.40;99.90
13052;DHT22;6592;47.484;9.726;2023-04-30T05:28:33;14.50;99.90
13052;DHT22;6592;47.484;9.726;2023-04-30T05:31:01;14.50;99.90
13052;DHT22;6592;47.484;9.726;2023-04-30T05:33:29;14.50;99.90
13052;DHT22;6592;47.484;9.726;2023-04-30T05:35:58;14.50;99.90
13052;DHT22;6592;47.484;9.726;2023-04-30T05:38:26;14.50;99.90
13052;DHT22;6592;47.484;9.726;2023-04-30T05:40:54;14.60;99.90
13052;DHT22;6592;47.484;9.726;2023-04-30T05:43:22;14.90;99.90
13052;DHT22;6592;47.484;9.726;2023-04-30T05:45:52;15.40;99.90
13052;DHT22;6592;47.484;9.726;2023-04-30T05:48:20;15.80;99.90
13052;DHT22;6592;47.484;9.726;2023-04-30T05:50:48;16.00;99.90
13052;DHT22;6592;47.484;9.726;2023-04-30T05:53:17;16.20;99.90
13052;DHT22;6592;47.484;9.726;2023-04-30T05:55:45;16.60;99.90
13052;DHT22;6592;47.484;9.726;2023-04-30T05:58:13;17.10;99.90
13052;DHT22;6592;47.484;9.726;2023-04-30T06:00:42;17.60;99.90
13052;DHT22;6592;47.484;9.726;2023-04-30T06:03:11;18.00;99.90
13052;DHT22;6592;47.484;9.726;2023-04-30T06:05:39;18.10;99.90
13052;DHT22;6592;47.484;9.726;2023-04-30T06:08:08;18.10;99.90
13052;DHT22;6592;47.484;9.726;2023-04-30T06:10:36;18.20;99.90
13052;DHT22;6592;47.484;9.726;2023-04-30T06:13:05;18.40;99.90
13052;DHT22;6592;47.484;9.726;2023-04-30T06:15:33;18.60;99.90
13052;DHT22;6592;47.484;9.726;2023-04-30T06:18:02;18.80;99.90
13052;DHT22;6592;47.484;9.726;2023-04-30T06:20:31;19.10;99.90
13052;DHT22;6592;47.484;9.726;2023-04-30T06:23:00;19.10;99.90
13052;DHT22;6592;47.484;9.726;2023-04-30T06:25:29;18.90;99.90
13052;DHT22;6592;47.484;9.726;2023-04-30T06:27:58;18.80;99.90
13052;DHT22;6592;47.484;9.726;2023-04-30T06:30:26;18.80;99.90
13052;DHT22;6592;47.484;9.726;2023-04-30T06:32:56;19.00;99.90
13052;DHT22;6592;47.484;9.726;2023-04-30T06:35:24;18.90;99.90
13052;DHT22;6592;47.484;9.726;2023-04-30T06:37:54;18.70;99.90
13052;DHT22;6592;47.484;9.726;2023-04-30T06:40:22;18.60;99.90
13052;DHT22;6592;47.484;9.726;2023-04-30T06:42:50;18.50;99.90
13052;DHT22;6592;47.484;9.726;2023-04-30T06:45:20;18.40;99.90
13052;DHT22;6592;47.484;9.726;2023-04-30T06:47:48;18.80;99.90
13052;DHT22;6592;47.484;9.726;2023-04-30T06:50:18;19.20;99.90
13052;DHT22;6592;47.484;9.726;2023-04-30T06:52:47;19.80;99.90
13052;DHT22;6592;47.484;9.726;2023-04-30T06:55:17;20.80;99.90
13052;DHT22;6592;47.484;9.726;2023-04-30T06:57:45;22.00;99.90
13052;DHT22;6592;47.484;9.726;2023-04-30T07:00:13;23.00;99.90
13052;DHT22;6592;47.484;9.726;2023-04-30T07:02:42;23.70;99.90
13052;DHT22;6592;47.484;9.726;2023-04-30T07:05:13;24.20;99.90
13052;DHT22;6592;47.484;9.726;2023-04-30T07:07:42;24.50;99.90
13052;DHT22;6592;47.484;9.726;2023-04-30T07:10:10;25.20;99.90
13052;DHT22;6592;47.484;9.726;2023-04-30T07:12:39;25.50;99.90
13052;DHT22;6592;47.484;9.726;2023-04-30T07:15:08;26.20;99.90
13052;DHT22;6592;47.484;9.726;2023-04-30T07:17:37;27.00;99.90
13052;DHT22;6592;47.484;9.726;2023-04-30T07:20:08;27.70;99.90
13052;DHT22;6592;47.484;9.726;2023-04-30T07:22:36;27.80;99.90
13052;DHT22;6592;47.484;9.726;2023-04-30T07:25:06;27.80;99.90
13052;DHT22;6592;47.484;9.726;2023-04-30T07:27:34;28.00;99.40
13052;DHT22;6592;47.484;9.726;2023-04-30T07:30:05;28.30;97.30
13052;DHT22;6592;47.484;9.726;2023-04-30T07:32:34;28.70;96.20
13052;DHT22;6592;47.484;9.726;2023-04-30T07:35:02;29.30;94.60
13052;DHT22;6592;47.484;9.726;2023-04-30T07:37:31;29.60;91.20
13052;DHT22;6592;47.484;9.726;2023-04-30T07:40:01;30.10;90.80
13052;DHT22;6592;47.484;9.726;2023-04-30T07:42:30;30.30;88.30
13052;DHT22;6592;47.484;9.726;2023-04-30T07:44:58;30.00;86.10
13052;DHT22;6592;47.484;9.726;2023-04-30T07:47:28;29.90;81.20
13052;DHT22;6592;47.484;9.726;2023-04-30T07:49:57;29.50;83.20
13052;DHT22;6592;47.484;9.726;2023-04-30T07:52:25;29.80;82.20
13052;DHT22;6592;47.484;9.726;2023-04-30T07:54:53;30.10;82.90
13052;DHT22;6592;47.484;9.726;2023-04-30T07:57:21;30.40;81.70
13052;DHT22;6592;47.484;9.726;2023-04-30T07:59:52;30.60;79.40
13052;DHT22;6592;47.484;9.726;2023-04-30T08:02:21;30.90;80.50
13052;DHT22;6592;47.484;9.726;2023-04-30T08:04:51;31.00;77.20
13052;DHT22;6592;47.484;9.726;2023-04-30T08:07:19;31.00;76.90
13052;DHT22;6592;47.484;9.726;2023-04-30T08:09:48;30.50;78.90
13052;DHT22;6592;47.484;9.726;2023-04-30T08:12:16;30.50;77.50
13052;DHT22;6592;47.484;9.726;2023-04-30T08:14:44;30.20;78.50
13052;DHT22;6592;47.484;9.726;2023-04-30T08:17:13;29.80;77.50
13052;DHT22;6592;47.484;9.726;2023-04-30T08:19:41;29.80;79.30
13052;DHT22;6592;47.484;9.726;2023-04-30T08:22:10;29.70;77.90
13052;DHT22;6592;47.484;9.726;2023-04-30T08:24:39;29.80;77.80
13052;DHT22;6592;47.484;9.726;2023-04-30T08:27:07;29.90;77.30
13052;DHT22;6592;47.484;9.726;2023-04-30T08:29:35;29.90;81.50
13052;DHT22;6592;47.484;9.726;2023-04-30T08:32:03;30.20;77.60
13052;DHT22;6592;47.484;9.726;2023-04-30T08:34:32;30.70;76.70
13052;DHT22;6592;47.484;9.726;2023-04-30T08:37:00;30.40;74.00
13052;DHT22;6592;47.484;9.726;2023-04-30T08:39:30;29.70;77.70
13052;DHT22;6592;47.484;9.726;2023-04-30T08:42:01;30.10;77.10
13052;DHT22;6592;47.484;9.726;2023-04-30T08:44:30;30.50;77.20
13052;DHT22;6592;47.484;9.726;2023-04-30T08:46:59;31.00;75.50
13052;DHT22;6592;47.484;9.726;2023-04-30T08:49:28;31.80;73.90
13052;DHT22;6592;47.484;9.726;2023-04-30T08:51:59;32.50;73.20
13052;DHT22;6592;47.484;9.726;2023-04-30T08:54:31;32.90;69.60
13052;DHT22;6592;47.484;9.726;2023-04-30T08:57:00;33.10;69.70
13052;DHT22;6592;47.484;9.726;2023-04-30T08:59:28;33.40;67.90
13052;DHT22;6592;47.484;9.726;2023-04-30T09:01:56;34.10;67.10
13052;DHT22;6592;47.484;9.726;2023-04-30T09:04:27;34.30;63.50
13052;DHT22;6592;47.484;9.726;2023-04-30T09:06:55;34.20;63.60
13052;DHT22;6592;47.484;9.726;2023-04-30T09:09:28;34.10;63.60
13052;DHT22;6592;47.484;9.726;2023-04-30T09:12:16;34.00;63.20
13052;DHT22;6592;47.484;9.726;2023-04-30T09:15:01;34.30;62.10
13052;DHT22;6592;47.484;9.726;2023-04-30T09:17:31;34.40;60.40
13052;DHT22;6592;47.484;9.726;2023-04-30T09:20:06;34.30;60.30
13052;DHT22;6592;47.484;9.726;2023-04-30T09:22:35;34.20;60.90
13052;DHT22;6592;47.484;9.726;2023-04-30T09:25:05;34.20;59.60
13052;DHT22;6592;47.484;9.726;2023-04-30T09:27:35;34.00;59.80
13052;DHT22;6592;47.484;9.726;2023-04-30T09:30:03;34.00;59.00
13052;DHT22;6592;47.484;9.726;2023-04-30T09:32:32;34.10;59.50
13052;DHT22;6592;47.484;9.726;2023-04-30T09:35:00;34.60;58.50
13052;DHT22;6592;47.484;9.726;2023-04-30T09:37:35;34.90;58.60
13052;DHT22;6592;47.484;9.726;2023-04-30T09:40:05;34.90;58.30
13052;DHT22;6592;47.484;9.726;2023-04-30T09:42:35;34.60;57.30
13052;DHT22;6592;47.484;9.726;2023-04-30T09:45:04;34.40;58.20
13052;DHT22;6592;47.484;9.726;2023-04-30T09:47:33;34.40;58.10
13052;DHT22;6592;47.484;9.726;2023-04-30T09:50:02;34.70;56.70
13052;DHT22;6592;47.484;9.726;2023-04-30T09:52:30;34.30;56.90
13052;DHT22;6592;47.484;9.726;2023-04-30T09:54:58;34.40;57.90
13052;DHT22;6592;47.484;9.726;2023-04-30T09:57:28;34.80;57.10
13052;DHT22;6592;47.484;9.726;2023-04-30T09:59:59;35.00;56.50
13052;DHT22;6592;47.484;9.726;2023-04-30T10:02:28;34.60;55.00
13052;DHT22;6592;47.484;9.726;2023-04-30T10:04:57;33.60;55.90
13052;DHT22;6592;47.484;9.726;2023-04-30T10:07:33;32.30;56.90
13052;DHT22;6592;47.484;9.726;2023-04-30T10:10:06;31.60;58.60
13052;DHT22;6592;47.484;9.726;2023-04-30T10:12:39;30.80;59.90
13052;DHT22;6592;47.484;9.726;2023-04-30T10:15:14;30.70;64.00
13052;DHT22;6592;47.484;9.726;2023-04-30T10:17:48;31.40;63.50
13052;DHT22;6592;47.484;9.726;2023-04-30T10:20:18;31.90;61.10
13052;DHT22;6592;47.484;9.726;2023-04-30T10:22:47;32.00;59.50
13052;DHT22;6592;47.484;9.726;2023-04-30T10:25:16;31.70;59.10
13052;DHT22;6592;47.484;9.726;2023-04-30T10:27:45;31.40;59.40
13052;DHT22;6592;47.484;9.726;2023-04-30T10:30:15;31.00;60.00
13052;DHT22;6592;47.484;9.726;2023-04-30T10:32:50;30.60;59.20
13052;DHT22;6592;47.484;9.726;2023-04-30T10:35:25;29.90;61.20
13052;DHT22;6592;47.484;9.726;2023-04-30T10:37:56;29.10;60.70
13052;DHT22;6592;47.484;9.726;2023-04-30T10:40:26;28.90;62.50
13052;DHT22;6592;47.484;9.726;2023-04-30T10:42:54;28.50;62.20
13052;DHT22;6592;47.484;9.726;2023-04-30T10:45:35;28.60;62.70
13052;DHT22;6592;47.484;9.726;2023-04-30T10:48:05;28.40;66.30
13052;DHT22;6592;47.484;9.726;2023-04-30T10:50:39;28.10;65.90
13052;DHT22;6592;47.484;9.726;2023-04-30T10:53:13;28.00;66.40
13052;DHT22;6592;47.484;9.726;2023-04-30T10:55:46;28.50;69.00
13052;DHT22;6592;47.484;9.726;2023-04-30T10:58:34;29.90;68.50
13052;DHT22;6592;47.484;9.726;2023-04-30T11:01:06;31.00;63.40
13052;DHT22;6592;47.484;9.726;2023-04-30T11:03:39;31.40;62.20
13052;DHT22;6592;47.484;9.726;2023-04-30T11:06:10;31.60;62.80
13052;DHT22;6592;47.484;9.726;2023-04-30T11:08:42;31.70;59.90
13052;DHT22;6592;47.484;9.726;2023-04-30T11:11:16;32.10;59.80
13052;DHT22;6592;47.484;9.726;2023-04-30T11:13:58;31.80;60.50
13052;DHT22;6592;47.484;9.726;2023-04-30T11:16:29;31.30;60.80
13052;DHT22;6592;47.484;9.726;2023-04-30T11:19:05;30.50;63.30
13052;DHT22;6592;47.484;9.726;2023-04-30T11:21:39;29.50;63.70
13052;DHT22;6592;47.484;9.726;2023-04-30T11:24:07;29.00;65.80
13052;DHT22;6592;47.484;9.726;2023-04-30T11:27:04;28.70;66.20
13052;DHT22;6592;47.484;9.726;2023-04-30T11:29:33;28.30;66.00
13052;DHT22;6592;47.484;9.726;2023-04-30T11:32:04;27.90;67.40
13052;DHT22;6592;47.484;9.726;2023-04-30T11:34:33;27.60;67.20
13052;DHT22;6592;47.484;9.726;2023-04-30T11:37:02;27.20;68.20
13052;DHT22;6592;47.484;9.726;2023-04-30T11:39:32;26.60;69.50
13052;DHT22;6592;47.484;9.726;2023-04-30T11:42:02;26.60;72.50
13052;DHT22;6592;47.484;9.726;2023-04-30T11:44:30;26.90;71.00
13052;DHT22;6592;47.484;9.726;2023-04-30T11:46:59;27.10;69.60
13052;DHT22;6592;47.484;9.726;2023-04-30T11:49:29;26.90;70.10
13052;DHT22;6592;47.484;9.726;2023-04-30T11:51:58;27.00;69.70
13052;DHT22;6592;47.484;9.726;2023-04-30T11:54:30;26.90;68.90
13052;DHT22;6592;47.484;9.726;2023-04-30T11:56:59;26.80;70.40
13052;DHT22;6592;47.484;9.726;2023-04-30T11:59:30;26.30;70.10
13052;DHT22;6592;47.484;9.726;2023-04-30T12:01:58;25.90;71.70
13052;DHT22;6592;47.484;9.726;2023-04-30T12:04:28;25.60;73.00
13052;DHT22;6592;47.484;9.726;2023-04-30T12:06:57;25.30;74.90
13052;DHT22;6592;47.484;9.726;2023-04-30T12:09:28;25.30;77.00
13052;DHT22;6592;47.484;9.726;2023-04-30T12:11:57;25.40;74.50
13052;DHT22;6592;47.484;9.726;2023-04-30T12:14:25;25.60;74.60
13052;DHT22;6592;47.484;9.726;2023-04-30T12:16:53;25.80;76.80
13052;DHT22;6592;47.484;9.726;2023-04-30T12:19:22;26.20;77.60
13052;DHT22;6592;47.484;9.726;2023-04-30T12:21:52;26.80;75.60
13052;DHT22;6592;47.484;9.726;2023-04-30T12:24:21;27.30;76.10
13052;DHT22;6592;47.484;9.726;2023-04-30T12:26:54;27.50;71.70
13052;DHT22;6592;47.484;9.726;2023-04-30T12:29:22;27.40;71.30
13052;DHT22;6592;47.484;9.726;2023-04-30T12:31:51;27.30;69.80
13052;DHT22;6592;47.484;9.726;2023-04-30T12:34:22;27.20;73.00
13052;DHT22;6592;47.484;9.726;2023-04-30T12:36:57;27.30;70.60
13052;DHT22;6592;47.484;9.726;2023-04-30T12:39:32;27.30;74.10
13052;DHT22;6592;47.484;9.726;2023-04-30T12:42:02;27.40;71.70
13052;DHT22;6592;47.484;9.726;2023-04-30T12:44:31;27.30;72.30
13052;DHT22;6592;47.484;9.726;2023-04-30T12:47:08;27.20;75.30
13052;DHT22;6592;47.484;9.726;2023-04-30T12:49:37;27.50;71.60
13052;DHT22;6592;47.484;9.726;2023-04-30T12:52:10;27.50;69.70
13052;DHT22;6592;47.484;9.726;2023-04-30T12:54:38;27.40;70.60
13052;DHT22;6592;47.484;9.726;2023-04-30T12:57:09;27.30;71.50
13052;DHT22;6592;47.484;9.726;2023-04-30T12:59:39;27.10;71.30
13052;DHT22;6592;47.484;9.726;2023-04-30T13:02:08;26.80;72.60
13052;DHT22;6592;47.484;9.726;2023-04-30T13:04:37;26.70;76.40
13052;DHT22;6592;47.484;9.726;2023-04-30T13:07:07;27.30;76.00
13052;DHT22;6592;47.484;9.726;2023-04-30T13:09:37;27.80;72.20
13052;DHT22;6592;47.484;9.726;2023-04-30T13:12:05;28.40;72.50
13052;DHT22;6592;47.484;9.726;2023-04-30T13:14:34;28.70;70.60
13052;DHT22;6592;47.484;9.726;2023-04-30T13:17:02;29.00;69.80
13052;DHT22;6592;47.484;9.726;2023-04-30T13:19:35;28.90;67.20
13052;DHT22;6592;47.484;9.726;2023-04-30T13:22:04;28.30;67.90
13052;DHT22;6592;47.484;9.726;2023-04-30T13:24:33;28.10;70.10
13052;DHT22;6592;47.484;9.726;2023-04-30T13:27:02;27.80;71.50
13052;DHT22;6592;47.484;9.726;2023-04-30T13:29:30;27.60;70.50
13052;DHT22;6592;47.484;9.726;2023-04-30T13:31:59;27.10;71.10
13052;DHT22;6592;47.484;9.726;2023-04-30T13:34:27;27.10;74.00
13052;DHT22;6592;47.484;9.726;2023-04-30T13:36:55;27.40;73.60
13052;DHT22;6592;47.484;9.726;2023-04-30T13:39:23;27.60;73.80
13052;DHT22;6592;47.484;9.726;2023-04-30T13:41:53;27.60;70.10
13052;DHT22;6592;47.484;9.726;2023-04-30T13:44:21;27.70;70.70
13052;DHT22;6592;47.484;9.726;2023-04-30T13:46:50;27.30;70.50
13052;DHT22;6592;47.484;9.726;2023-04-30T13:49:18;26.70;70.40
13052;DHT22;6592;47.484;9.726;2023-04-30T13:51:46;26.60;73.60
13052;DHT22;6592;47.484;9.726;2023-04-30T13:54:14;26.60;73.70
13052;DHT22;6592;47.484;9.726;2023-04-30T13:56:43;26.80;73.50
13052;DHT22;6592;47.484;9.726;2023-04-30T13:59:13;27.00;72.00
13052;DHT22;6592;47.484;9.726;2023-04-30T14:01:42;26.80;72.50
13052;DHT22;6592;47.484;9.726;2023-04-30T14:04:10;26.50;71.50
13052;DHT22;6592;47.484;9.726;2023-04-30T14:06:39;25.80;71.80
13052;DHT22;6592;47.484;9.726;2023-04-30T14:09:08;25.40;73.50
13052;DHT22;6592;47.484;9.726;2023-04-30T14:11:36;25.30;75.60
13052;DHT22;6592;47.484;9.726;2023-04-30T14:14:06;25.20;75.00
13052;DHT22;6592;47.484;9.726;2023-04-30T14:16:36;25.00;75.90
13052;DHT22;6592;47.484;9.726;2023-04-30T14:19:04;24.50;77.50
13052;DHT22;6592;47.484;9.726;2023-04-30T14:21:32;24.10;78.40
13052;DHT22;6592;47.484;9.726;2023-04-30T14:24:01;23.80;78.10
13052;DHT22;6592;47.484;9.726;2023-04-30T14:26:29;23.50;79.10
13052;DHT22;6592;47.484;9.726;2023-04-30T14:28:57;23.50;79.80
13052;DHT22;6592;47.484;9.726;2023-04-30T14:31:26;23.40;81.20
13052;DHT22;6592;47.484;9.726;2023-04-30T14:33:55;23.20;81.10
13052;DHT22;6592;47.484;9.726;2023-04-30T14:36:24;23.20;81.30
13052;DHT22;6592;47.484;9.726;2023-04-30T14:38:53;22.90;80.80
13052;DHT22;6592;47.484;9.726;2023-04-30T14:41:21;22.90;82.10
13052;DHT22;6592;47.484;9.726;2023-04-30T14:43:49;22.70;82.20
13052;DHT22;6592;47.484;9.726;2023-04-30T14:46:18;22.80;83.20
13052;DHT22;6592;47.484;9.726;2023-04-30T14:48:46;22.80;82.00
13052;DHT22;6592;47.484;9.726;2023-04-30T14:51:16;22.80;81.50
13052;DHT22;6592;47.484;9.726;2023-04-30T14:53:44;22.70;83.60
13052;DHT22;6592;47.484;9.726;2023-04-30T14:56:13;22.60;83.40
13052;DHT22;6592;47.484;9.726;2023-04-30T14:58:41;22.60;83.10
13052;DHT22;6592;47.484;9.726;2023-04-30T15:01:10;22.60;83.00
13052;DHT22;6592;47.484;9.726;2023-04-30T15:03:38;22.60;84.90
13052;DHT22;6592;47.484;9.726;2023-04-30T15:06:06;22.50;84.50
13052;DHT22;6592;47.484;9.726;2023-04-30T15:08:36;22.50;85.60
13052;DHT22;6592;47.484;9.726;2023-04-30T15:11:06;22.40;84.60
13052;DHT22;6592;47.484;9.726;2023-04-30T15:13:36;22.50;84.70
13052;DHT22;6592;47.484;9.726;2023-04-30T15:16:04;22.40;84.70
13052;DHT22;6592;47.484;9.726;2023-04-30T15:18:33;22.40;85.00
13052;DHT22;6592;47.484;9.726;2023-04-30T15:21:01;22.40;85.80
13052;DHT22;6592;47.484;9.726;2023-04-30T15:23:30;22.40;85.60
13052;DHT22;6592;47.484;9.726;2023-04-30T15:26:01;22.40;85.50
13052;DHT22;6592;47.484;9.726;2023-04-30T15:28:30;22.50;85.20
13052;DHT22;6592;47.484;9.726;2023-04-30T15:30:59;22.50;85.50
13052;DHT22;6592;47.484;9.726;2023-04-30T15:33:29;22.50;84.20
13052;DHT22;6592;47.484;9.726;2023-04-30T15:35:57;22.60;86.00
13052;DHT22;6592;47.484;9.726;2023-04-30T15:38:26;22.60;86.40
13052;DHT22;6592;47.484;9.726;2023-04-30T15:40:54;22.50;86.20
13052;DHT22;6592;47.484;9.726;2023-04-30T15:43:24;22.50;86.30
13052;DHT22;6592;47.484;9.726;2023-04-30T15:45:52;22.60;85.80
13052;DHT22;6592;47.484;9.726;2023-04-30T15:48:21;22.70;86.10
13052;DHT22;6592;47.484;9.726;2023-04-30T15:50:49;22.80;83.60
13052;DHT22;6592;47.484;9.726;2023-04-30T15:53:17;22.80;83.10
13052;DHT22;6592;47.484;9.726;2023-04-30T15:55:46;23.00;85.30
13052;DHT22;6592;47.484;9.726;2023-04-30T15:58:16;22.90;85.40
13052;DHT22;6592;47.484;9.726;2023-04-30T16:00:46;22.90;83.80